sensor_id;sensor_type;location;lat;lon;timestamp;pressure;altitude;pressure_sealevel;temperature;humidity
65872;BME280;52653;50.080;21.992;2023-08-21T00:00:38;99532.09;;;20.79;94.50
65872;BME280;52653;50.080;21.992;2023-08-21T00:03:32;99532.98;;;20.74;94.49
65872;BME280;52653;50.080;21.992;2023-08-21T00:06:05;99535.31;;;20.71;94.32
65872;BME280;52653;50.080;21.992;2023-08-21T00:08:38;99537.84;;;20.65;94.19
65872;BME280;52653;50.080;21.992;2023-08-21T00:11:14;99535.69;;;20.62;94.00
65872;BME280;52653;50.080;21.992;2023-08-21T00:13:46;99534.23;;;20.58;94.41
65872;BME280;52653;50.080;21.992;2023-08-21T00:16:20;99531.52;;;20.55;94.40
65872;BME280;52653;50.080;21.992;2023-08-21T00:18:53;99532.02;;;20.52;94.73
65872;BME280;52653;50.080;21.992;2023-08-21T00:21:25;99527.89;;;20.48;94.75
65872;BME280;52653;50.080;21.992;2023-08-21T00:23:59;99525.72;;;20.45;94.55
65872;BME280;52653;50.080;21.992;2023-08-21T00:26:31;99523.55;;;20.41;94.70
65872;BME280;52653;50.080;21.992;2023-08-21T00:29:04;99523.23;;;20.36;94.69
65872;BME280;52653;50.080;21.992;2023-08-21T00:31:37;99522.39;;;20.30;94.82
65872;BME280;52653;50.080;21.992;2023-08-21T00:34:09;99527.05;;;20.25;95.47
65872;BME280;52653;50.080;21.992;2023-08-21T00:36:44;99527.95;;;20.21;95.50
65872;BME280;52653;50.080;21.992;2023-08-21T00:39:16;99524.64;;;20.19;95.70
65872;BME280;52653;50.080;21.992;2023-08-21T00:41:49;99526.73;;;20.16;96.01
65872;BME280;52653;50.080;21.992;2023-08-21T00:44:21;99524.02;;;20.13;95.86
65872;BME280;52653;50.080;21.992;2023-08-21T00:46:54;99525.27;;;20.09;95.87
65872;BME280;52653;50.080;21.992;2023-08-21T00:49:28;99524.27;;;20.07;96.00
65872;BME280;52653;50.080;21.992;2023-08-21T00:52:01;99524.70;;;20.05;96.18
65872;BME280;52653;50.080;21.992;2023-08-21T00:54:34;99526.04;;;20.03;96.25
65872;BME280;52653;50.080;21.992;2023-08-21T00:57:07;99528.67;;;19.99;96.42
65872;BME280;52653;50.080;21.992;2023-08-21T00:59:40;99537.64;;;19.98;97.30
65872;BME280;52653;50.080;21.992;2023-08-21T01:02:13;99538.19;;;19.97;98.15
65872;BME280;52653;50.080;21.992;2023-08-21T01:04:46;99542.81;;;19.98;98.29
65872;BME280;52653;50.080;21.992;2023-08-21T01:07:19;99538.40;;;19.97;98.74
65872;BME280;52653;50.080;21.992;2023-08-21T01:09:58;99531.31;;;19.96;98.75
65872;BME280;52653;50.080;21.992;2023-08-21T01:12:37;99533.48;;;19.95;98.35
65872;BME280;52653;50.080;21.992;2023-08-21T01:15:15;99527.13;;;19.93;98.34
65872;BME280;52653;50.080;21.992;2023-08-21T01:17:49;99527.02;;;19.91;98.07
65872;BME280;52653;50.080;21.992;2023-08-21T01:20:22;99521.80;;;19.89;98.08
65872;BME280;52653;50.080;21.992;2023-08-21T01:22:57;99523.15;;;19.86;97.99
65872;BME280;52653;50.080;21.992;2023-08-21T01:25:40;99523.28;;;19.83;97.92
65872;BME280;52653;50.080;21.992;2023-08-21T01:28:12;99525.02;;;19.80;97.72
65872;BME280;52653;50.080;21.992;2023-08-21T01:30:45;99525.65;;;19.77;97.71
65872;BME280;52653;50.080;21.992;2023-08-21T01:33:20;99524.35;;;19.75;97.71
65872;BME280;52653;50.080;21.992;2023-08-21T01:35:54;99522.70;;;19.71;97.73
65872;BME280;52653;50.080;21.992;2023-08-21T01:38:27;99521.18;;;19.69;97.74
65872;BME280;52653;50.080;21.992;2023-08-21T01:40:59;99524.86;;;19.66;97.76
65872;BME280;52653;50.080;21.992;2023-08-21T01:43:32;99525.30;;;19.64;97.75
65872;BME280;52653;50.080;21.992;2023-08-21T01:46:06;99529.54;;;19.61;97.69
65872;BME280;52653;50.080;21.992;2023-08-21T01:48:39;99533.41;;;19.57;97.70
65872;BME280;52653;50.080;21.992;2023-08-21T01:51:11;99540.07;;;19.54;98.60
65872;BME280;52653;50.080;21.992;2023-08-21T01:53:44;99544.25;;;19.52;99.28
65872;BME280;52653;50.080;21.992;2023-08-21T01:56:16;99549.13;;;19.50;99.67
65872;BME280;52653;50.080;21.992;2023-08-21T01:58:50;99550.27;;;19.48;99.97
65872;BME280;52653;50.080;21.992;2023-08-21T02:01:22;99547.85;;;19.46;100.00
65872;BME280;52653;50.080;21.992;2023-08-21T02:03:58;99553.75;;;19.46;100.00
65872;BME280;52653;50.080;21.992;2023-08-21T02:06:31;99553.08;;;19.45;100.00
65872;BME280;52653;50.080;21.992;2023-08-21T02:09:03;99554.16;;;19.44;100.00
65872;BME280;52653;50.080;21.992;2023-08-21T02:11:41;99552.45;;;19.42;100.00
65872;BME280;52653;50.080;21.992;2023-08-21T02:14:22;99548.45;;;19.39;100.00
65872;BME280;52653;50.080;21.992;2023-08-21T02:16:55;99550.48;;;19.38;100.00
65872;BME280;52653;50.080;21.992;2023-08-21T02:19:30;99550.97;;;19.34;99.95
65872;BME280;52653;50.080;21.992;2023-08-21T02:22:12;99550.73;;;19.31;99.73
65872;BME280;52653;50.080;21.992;2023-08-21T02:24:45;99550.11;;;19.28;99.63
65872;BME280;52653;50.080;21.992;2023-08-21T02:27:17;99547.90;;;19.26;99.62
65872;BME280;52653;50.080;21.992;2023-08-21T02:29:52;99550.33;;;19.23;99.75
65872;BME280;52653;50.080;21.992;2023-08-21T02:32:25;99551.36;;;19.20;99.52
65872;BME280;52653;50.080;21.992;2023-08-21T02:34:58;99555.92;;;19.16;99.46
65872;BME280;52653;50.080;21.992;2023-08-21T02:37:30;99557.27;;;19.13;99.68
65872;BME280;52653;50.080;21.992;2023-08-21T02:40:03;99555.68;;;19.13;99.99
65872;BME280;52653;50.080;21.992;2023-08-21T02:42:36;99559.48;;;19.11;100.00
65872;BME280;52653;50.080;21.992;2023-08-21T02:45:11;99560.83;;;19.09;100.00
65872;BME280;52653;50.080;21.992;2023-08-21T02:47:44;99559.84;;;19.07;99.97
65872;BME280;52653;50.080;21.992;2023-08-21T02:50:17;99555.27;;;19.04;100.00
65872;BME280;52653;50.080;21.992;2023-08-21T02:52:49;99554.51;;;19.02;99.89
65872;BME280;52653;50.080;21.992;2023-08-21T02:55:22;99548.60;;;18.98;100.00
65872;BME280;52653;50.080;21.992;2023-08-21T02:57:56;99551.52;;;18.96;99.90
65872;BME280;52653;50.080;21.992;2023-08-21T03:00:29;99551.38;;;18.95;100.00
65872;BME280;52653;50.080;21.992;2023-08-21T03:03:02;99551.69;;;18.96;100.00
65872;BME280;52653;50.080;21.992;2023-08-21T03:05:35;99551.86;;;18.97;100.00
65872;BME280;52653;50.080;21.992;2023-08-21T03:08:10;99550.19;;;18.98;100.00
65872;BME280;52653;50.080;21.992;2023-08-21T03:10:43;99552.64;;;18.99;100.00
65872;BME280;52653;50.080;21.992;2023-08-21T03:13:18;99555.80;;;19.00;100.00
65872;BME280;52653;50.080;21.992;2023-08-21T03:15:50;99554.77;;;19.03;100.00
65872;BME280;52653;50.080;21.992;2023-08-21T03:18:23;99556.29;;;19.06;100.00
65872;BME280;52653;50.080;21.992;2023-08-21T03:20:56;99555.62;;;19.10;100.00
65872;BME280;52653;50.080;21.992;2023-08-21T03:23:28;99554.75;;;19.14;100.00
65872;BME280;52653;50.080;21.992;2023-08-21T03:26:01;99556.23;;;19.17;100.00
65872;BME280;52653;50.080;21.992;2023-08-21T03:28:34;99556.15;;;19.20;100.00
65872;BME280;52653;50.080;21.992;2023-08-21T03:31:06;99555.71;;;19.22;100.00
65872;BME280;52653;50.080;21.992;2023-08-21T03:33:40;99553.83;;;19.25;100.00
65872;BME280;52653;50.080;21.992;2023-08-21T03:36:12;99555.68;;;19.27;100.00
65872;BME280;52653;50.080;21.992;2023-08-21T03:38:45;99556.46;;;19.30;100.00
65872;BME280;52653;50.080;21.992;2023-08-21T03:41:18;99561.39;;;19.31;100.00
65872;BME280;52653;50.080;21.992;2023-08-21T03:43:50;99560.08;;;19.33;100.00
65872;BME280;52653;50.080;21.992;2023-08-21T03:46:23;99556.25;;;19.36;100.00
65872;BME280;52653;50.080;21.992;2023-08-21T03:48:58;99561.16;;;19.37;100.00
65872;BME280;52653;50.080;21.992;2023-08-21T03:51:34;99563.59;;;19.39;100.00
65872;BME280;52653;50.080;21.992;2023-08-21T03:54:06;99562.60;;;19.42;100.00
65872;BME280;52653;50.080;21.992;2023-08-21T03:56:44;99563.42;;;19.44;100.00
65872;BME280;52653;50.080;21.992;2023-08-21T03:59:38;99559.48;;;19.45;100.00
65872;BME280;52653;50.080;21.992;2023-08-21T04:02:18;99565.44;;;19.47;100.00
65872;BME280;52653;50.080;21.992;2023-08-21T04:04:54;99563.91;;;19.49;99.93
65872;BME280;52653;50.080;21.992;2023-08-21T04:07:29;99563.66;;;19.52;100.00
65872;BME280;52653;50.080;21.992;2023-08-21T04:10:02;99559.45;;;19.54;100.00
65872;BME280;52653;50.080;21.992;2023-08-21T04:12:34;99561.69;;;19.57;99.94
65872;BME280;52653;50.080;21.992;2023-08-21T04:15:12;99556.91;;;19.61;99.86
65872;BME280;52653;50.080;21.992;2023-08-21T04:17:51;99553.72;;;19.65;99.59
65872;BME280;52653;50.080;21.992;2023-08-21T04:20:24;99551.41;;;19.70;99.62
65872;BME280;52653;50.080;21.992;2023-08-21T04:22:56;99551.59;;;19.74;99.51
65872;BME280;52653;50.080;21.992;2023-08-21T04:25:29;99549.78;;;19.79;99.39
65872;BME280;52653;50.080;21.992;2023-08-21T04:28:04;99551.16;;;19.85;99.23
65872;BME280;52653;50.080;21.992;2023-08-21T04:30:41;99549.66;;;19.91;99.24
65872;BME280;52653;50.080;21.992;2023-08-21T04:33:14;99550.65;;;19.97;98.85
65872;BME280;52653;50.080;21.992;2023-08-21T04:35:48;99555.54;;;20.04;98.65
65872;BME280;52653;50.080;21.992;2023-08-21T04:38:25;99559.77;;;20.10;98.60
65872;BME280;52653;50.080;21.992;2023-08-21T04:41:07;99566.12;;;20.16;98.78
65872;BME280;52653;50.080;21.992;2023-08-21T04:43:43;99570.74;;;20.24;98.80
65872;BME280;52653;50.080;21.992;2023-08-21T04:46:15;99567.16;;;20.34;99.09
65872;BME280;52653;50.080;21.992;2023-08-21T04:48:51;99567.67;;;20.43;98.56
65872;BME280;52653;50.080;21.992;2023-08-21T04:51:28;99560.85;;;20.52;98.65
65872;BME280;52653;50.080;21.992;2023-08-21T04:54:02;99562.56;;;20.63;98.21
65872;BME280;52653;50.080;21.992;2023-08-21T04:56:37;99563.52;;;20.74;98.01
65872;BME280;52653;50.080;21.992;2023-08-21T04:59:13;99561.29;;;20.84;97.81
65872;BME280;52653;50.080;21.992;2023-08-21T05:01:45;99561.35;;;20.94;97.48
65872;BME280;52653;50.080;21.992;2023-08-21T05:04:19;99562.67;;;21.05;97.23
65872;BME280;52653;50.080;21.992;2023-08-21T05:06:54;99565.51;;;21.17;96.66
65872;BME280;52653;50.080;21.992;2023-08-21T05:09:27;99563.66;;;21.39;96.87
65872;BME280;52653;50.080;21.992;2023-08-21T05:12:00;99562.67;;;21.67;96.46
65872;BME280;52653;50.080;21.992;2023-08-21T05:14:33;99562.61;;;21.94;95.61
65872;BME280;52653;50.080;21.992;2023-08-21T05:17:06;99562.29;;;22.16;94.81
65872;BME280;52653;50.080;21.992;2023-08-21T05:19:41;99556.99;;;22.33;93.26
65872;BME280;52653;50.080;21.992;2023-08-21T05:22:16;99552.89;;;22.50;93.13
65872;BME280;52653;50.080;21.992;2023-08-21T05:24:51;99555.33;;;22.69;92.37
65872;BME280;52653;50.080;21.992;2023-08-21T05:27:24;99551.80;;;22.85;91.80
65872;BME280;52653;50.080;21.992;2023-08-21T05:29:56;99549.18;;;23.01;91.16
65872;BME280;52653;50.080;21.992;2023-08-21T05:32:29;99544.11;;;23.16;90.58
65872;BME280;52653;50.080;21.992;2023-08-21T05:35:04;99552.06;;;23.30;89.73
65872;BME280;52653;50.080;21.992;2023-08-21T05:37:37;99556.78;;;23.42;88.37
65872;BME280;52653;50.080;21.992;2023-08-21T05:40:14;99566.38;;;23.51;86.87
65872;BME280;52653;50.080;21.992;2023-08-21T05:42:47;99565.91;;;23.59;86.04
65872;BME280;52653;50.080;21.992;2023-08-21T05:45:21;99562.97;;;23.67;85.53
65872;BME280;52653;50.080;21.992;2023-08-21T05:47:56;99557.30;;;23.79;85.25
65872;BME280;52653;50.080;21.992;2023-08-21T05:50:29;99560.27;;;23.90;84.71
65872;BME280;52653;50.080;21.992;2023-08-21T05:53:02;99562.92;;;24.03;84.20
65872;BME280;52653;50.080;21.992;2023-08-21T05:55:55;99562.05;;;24.18;82.98
65872;BME280;52653;50.080;21.992;2023-08-21T05:58:48;99561.66;;;24.31;82.11
65872;BME280;52653;50.080;21.992;2023-08-21T06:01:20;99561.92;;;24.42;80.14
65872;BME280;52653;50.080;21.992;2023-08-21T06:03:55;99557.68;;;24.50;78.72
65872;BME280;52653;50.080;21.992;2023-08-21T06:06:46;99561.11;;;24.59;76.39
65872;BME280;52653;50.080;21.992;2023-08-21T06:09:19;99561.38;;;24.69;76.29
65872;BME280;52653;50.080;21.992;2023-08-21T06:11:52;99560.12;;;24.81;75.73
65872;BME280;52653;50.080;21.992;2023-08-21T06:14:30;99563.73;;;24.96;76.21
65872;BME280;52653;50.080;21.992;2023-08-21T06:17:05;99577.31;;;25.09;75.15
65872;BME280;52653;50.080;21.992;2023-08-21T06:19:38;99576.00;;;25.18;73.87
65872;BME280;52653;50.080;21.992;2023-08-21T06:22:13;99575.40;;;25.25;73.28
65872;BME280;52653;50.080;21.992;2023-08-21T06:24:46;99580.45;;;25.33;73.08
65872;BME280;52653;50.080;21.992;2023-08-21T06:27:22;99582.02;;;25.40;72.73
65872;BME280;52653;50.080;21.992;2023-08-21T06:29:55;99586.86;;;25.48;72.18
65872;BME280;52653;50.080;21.992;2023-08-21T06:32:28;99590.52;;;25.62;72.72
65872;BME280;52653;50.080;21.992;2023-08-21T06:35:02;99591.17;;;25.71;72.38
65872;BME280;52653;50.080;21.992;2023-08-21T06:37:39;99589.36;;;25.89;72.66
65872;BME280;52653;50.080;21.992;2023-08-21T06:40:14;99587.41;;;26.02;71.76
65872;BME280;52653;50.080;21.992;2023-08-21T06:42:47;99590.84;;;26.10;70.67
65872;BME280;52653;50.080;21.992;2023-08-21T06:45:23;99599.70;;;26.17;71.02
65872;BME280;52653;50.080;21.992;2023-08-21T06:47:56;99598.02;;;26.29;71.08
65872;BME280;52653;50.080;21.992;2023-08-21T06:50:33;99592.21;;;26.36;68.24
65872;BME280;52653;50.080;21.992;2023-08-21T06:53:06;99596.59;;;26.40;68.16
65872;BME280;52653;50.080;21.992;2023-08-21T06:55:41;99597.90;;;26.48;67.80
65872;BME280;52653;50.080;21.992;2023-08-21T06:58:16;99597.13;;;26.57;68.49
65872;BME280;52653;50.080;21.992;2023-08-21T07:00:54;99601.46;;;26.67;68.41
65872;BME280;52653;50.080;21.992;2023-08-21T07:03:30;99596.42;;;26.80;68.69
65872;BME280;52653;50.080;21.992;2023-08-21T07:06:03;99596.08;;;26.93;67.98
65872;BME280;52653;50.080;21.992;2023-08-21T07:08:36;99599.30;;;27.01;66.43
65872;BME280;52653;50.080;21.992;2023-08-21T07:11:14;99603.08;;;27.02;64.96
65872;BME280;52653;50.080;21.992;2023-08-21T07:13:48;99603.13;;;27.09;66.21
65872;BME280;52653;50.080;21.992;2023-08-21T07:16:22;99607.59;;;27.17;65.62
65872;BME280;52653;50.080;21.992;2023-08-21T07:18:54;99602.20;;;27.24;65.77
65872;BME280;52653;50.080;21.992;2023-08-21T07:21:30;99602.40;;;27.35;66.05
65872;BME280;52653;50.080;21.992;2023-08-21T07:24:06;99602.84;;;27.46;65.68
65872;BME280;52653;50.080;21.992;2023-08-21T07:26:39;99605.33;;;27.49;64.88
65872;BME280;52653;50.080;21.992;2023-08-21T07:29:22;99605.27;;;27.57;65.31
65872;BME280;52653;50.080;21.992;2023-08-21T07:31:55;99603.03;;;27.66;65.11
65872;BME280;52653;50.080;21.992;2023-08-21T07:34:31;99605.95;;;27.68;63.76
65872;BME280;52653;50.080;21.992;2023-08-21T07:37:03;99606.13;;;27.68;64.36
65872;BME280;52653;50.080;21.992;2023-08-21T07:39:36;99612.05;;;27.74;63.07
65872;BME280;52653;50.080;21.992;2023-08-21T07:42:13;99610.38;;;27.77;63.73
65872;BME280;52653;50.080;21.992;2023-08-21T07:44:47;99606.08;;;27.89;63.96
65872;BME280;52653;50.080;21.992;2023-08-21T07:47:20;99607.86;;;28.01;63.95
65872;BME280;52653;50.080;21.992;2023-08-21T07:49:53;99608.02;;;28.09;63.34
65872;BME280;52653;50.080;21.992;2023-08-21T07:52:26;99611.80;;;28.24;64.43
65872;BME280;52653;50.080;21.992;2023-08-21T07:54:59;99615.20;;;28.34;61.69
65872;BME280;52653;50.080;21.992;2023-08-21T07:57:37;99612.34;;;28.39;61.72
65872;BME280;52653;50.080;21.992;2023-08-21T08:00:13;99611.42;;;28.46;61.95
65872;BME280;52653;50.080;21.992;2023-08-21T08:02:46;99608.35;;;28.58;62.25
65872;BME280;52653;50.080;21.992;2023-08-21T08:05:19;99605.39;;;28.71;61.74
65872;BME280;52653;50.080;21.992;2023-08-21T08:07:52;99603.86;;;28.81;60.29
65872;BME280;52653;50.080;21.992;2023-08-21T08:10:27;99604.05;;;28.86;59.82
65872;BME280;52653;50.080;21.992;2023-08-21T08:13:03;99603.48;;;28.94;59.80
65872;BME280;52653;50.080;21.992;2023-08-21T08:15:36;99604.30;;;29.02;59.48
65872;BME280;52653;50.080;21.992;2023-08-21T08:18:12;99602.00;;;29.13;59.29
65872;BME280;52653;50.080;21.992;2023-08-21T08:20:46;99602.32;;;29.22;58.79
65872;BME280;52653;50.080;21.992;2023-08-21T08:23:20;99600.63;;;29.23;57.43
65872;BME280;52653;50.080;21.992;2023-08-21T08:26:05;99597.70;;;29.26;57.44
65872;BME280;52653;50.080;21.992;2023-08-21T08:29:00;99603.64;;;29.33;58.37
65872;BME280;52653;50.080;21.992;2023-08-21T08:31:36;99609.12;;;29.39;57.81
65872;BME280;52653;50.080;21.992;2023-08-21T08:34:13;99601.70;;;29.47;58.25
65872;BME280;52653;50.080;21.992;2023-08-21T08:36:48;99600.96;;;29.60;57.63
65872;BME280;52653;50.080;21.992;2023-08-21T08:39:21;99602.56;;;29.70;56.85
65872;BME280;52653;50.080;21.992;2023-08-21T08:41:57;99598.09;;;29.82;56.69
65872;BME280;52653;50.080;21.992;2023-08-21T08:44:36;99597.39;;;29.95;55.50
65872;BME280;52653;50.080;21.992;2023-08-21T08:47:11;99594.79;;;30.06;55.54
65872;BME280;52653;50.080;21.992;2023-08-21T08:49:45;99598.89;;;30.17;55.61
65872;BME280;52653;50.080;21.992;2023-08-21T08:52:18;99604.30;;;30.28;55.11
65872;BME280;52653;50.080;21.992;2023-08-21T08:55:03;99603.56;;;30.37;53.77
65872;BME280;52653;50.080;21.992;2023-08-21T08:57:38;99604.23;;;30.40;52.84
65872;BME280;52653;50.080;21.992;2023-08-21T09:00:13;99604.02;;;30.44;51.79
65872;BME280;52653;50.080;21.992;2023-08-21T09:02:46;99602.70;;;30.52;52.84
65872;BME280;52653;50.080;21.992;2023-08-21T09:05:22;99603.47;;;30.58;51.95
65872;BME280;52653;50.080;21.992;2023-08-21T09:08:10;99600.68;;;30.63;51.86
65872;BME280;52653;50.080;21.992;2023-08-21T09:10:45;99599.36;;;30.72;52.14
65872;BME280;52653;50.080;21.992;2023-08-21T09:13:18;99599.55;;;30.81;51.55
65872;BME280;52653;50.080;21.992;2023-08-21T09:15:55;99597.14;;;30.90;50.85
65872;BME280;52653;50.080;21.992;2023-08-21T09:18:43;99597.91;;;30.93;50.27
65872;BME280;52653;50.080;21.992;2023-08-21T09:21:22;99597.77;;;30.99;49.85
65872;BME280;52653;50.080;21.992;2023-08-21T09:23:59;99593.84;;;31.03;49.80
65872;BME280;52653;50.080;21.992;2023-08-21T09:26:40;99593.17;;;31.08;50.29
65872;BME280;52653;50.080;21.992;2023-08-21T09:29:16;99587.77;;;31.12;49.81
65872;BME280;52653;50.080;21.992;2023-08-21T09:31:49;99580.92;;;31.14;50.00
65872;BME280;52653;50.080;21.992;2023-08-21T09:34:21;99580.61;;;31.13;48.71
65872;BME280;52653;50.080;21.992;2023-08-21T09:37:18;99573.01;;;31.19;49.86
65872;BME280;52653;50.080;21.992;2023-08-21T09:39:53;99571.45;;;31.25;48.33
65872;BME280;52653;50.080;21.992;2023-08-21T09:42:29;99566.27;;;31.26;47.72
65872;BME280;52653;50.080;21.992;2023-08-21T09:45:12;99566.96;;;31.29;46.95
65872;BME280;52653;50.080;21.992;2023-08-21T09:47:45;99569.86;;;31.24;46.88
65872;BME280;52653;50.080;21.992;2023-08-21T09:50:21;99562.00;;;31.29;47.96
65872;BME280;52653;50.080;21.992;2023-08-21T09:52:54;99558.48;;;31.41;48.14
65872;BME280;52653;50.080;21.992;2023-08-21T09:55:33;99557.77;;;31.56;48.83
65872;BME280;52653;50.080;21.992;2023-08-21T09:58:06;99556.84;;;31.73;49.05
65872;BME280;52653;50.080;21.992;2023-08-21T10:00:39;99559.32;;;31.88;47.55
65872;BME280;52653;50.080;21.992;2023-08-21T10:03:18;99560.05;;;31.90;47.08
65872;BME280;52653;50.080;21.992;2023-08-21T10:06:12;99556.30;;;31.99;47.06
65872;BME280;52653;50.080;21.992;2023-08-21T10:08:54;99558.73;;;32.06;47.04
65872;BME280;52653;50.080;21.992;2023-08-21T10:11:41;99551.90;;;32.04;46.58
65872;BME280;52653;50.080;21.992;2023-08-21T10:14:19;99555.84;;;32.00;46.55
65872;BME280;52653;50.080;21.992;2023-08-21T10:17:03;99549.27;;;32.07;45.56
65872;BME280;52653;50.080;21.992;2023-08-21T10:19:42;99545.98;;;32.22;45.86
65872;BME280;52653;50.080;21.992;2023-08-21T10:22:42;99542.04;;;32.40;45.75
65872;BME280;52653;50.080;21.992;2023-08-21T10:25:19;99549.21;;;32.53;45.22
65872;BME280;52653;50.080;21.992;2023-08-21T10:28:05;99546.86;;;32.64;45.56
65872;BME280;52653;50.080;21.992;2023-08-21T10:30:41;99543.53;;;32.74;46.03
65872;BME280;52653;50.080;21.992;2023-08-21T10:33:14;99538.45;;;32.97;45.11
65872;BME280;52653;50.080;21.992;2023-08-21T10:35:47;99540.81;;;33.16;44.32
65872;BME280;52653;50.080;21.992;2023-08-21T10:39:01;99542.90;;;33.44;44.08
65872;BME280;52653;50.080;21.992;2023-08-21T10:41:40;99543.89;;;33.67;44.02
65872;BME280;52653;50.080;21.992;2023-08-21T10:44:17;99546.58;;;33.97;43.78
65872;BME280;52653;50.080;21.992;2023-08-21T10:47:21;99550.00;;;33.90;42.48
65872;BME280;52653;50.080;21.992;2023-08-21T10:49:56;99543.20;;;33.69;43.53
65872;BME280;52653;50.080;21.992;2023-08-21T10:52:29;99538.39;;;33.60;44.44
65872;BME280;52653;50.080;21.992;2023-08-21T10:55:07;99544.63;;;33.45;43.80
65872;BME280;52653;50.080;21.992;2023-08-21T10:57:40;99542.52;;;33.31;44.97
65872;BME280;52653;50.080;21.992;2023-08-21T11:00:26;99540.94;;;33.30;45.44
65872;BME280;52653;50.080;21.992;2023-08-21T11:03:20;99541.48;;;33.40;44.99
65872;BME280;52653;50.080;21.992;2023-08-21T11:06:10;99542.66;;;33.48;45.00
65872;BME280;52653;50.080;21.992;2023-08-21T11:09:04;99540.14;;;33.55;45.42
65872;BME280;52653;50.080;21.992;2023-08-21T11:11:42;99544.92;;;33.62;45.40
65872;BME280;52653;50.080;21.992;2023-08-21T11:14:36;99545.11;;;33.64;44.51
65872;BME280;52653;50.080;21.992;2023-08-21T11:17:30;99545.11;;;33.66;44.94
65872;BME280;52653;50.080;21.992;2023-08-21T11:20:13;99544.67;;;33.59;45.51
65872;BME280;52653;50.080;21.992;2023-08-21T11:22:49;99548.52;;;33.34;46.38
65872;BME280;52653;50.080;21.992;2023-08-21T11:25:23;99550.98;;;33.11;47.31
65872;BME280;52653;50.080;21.992;2023-08-21T11:28:02;99553.48;;;32.73;47.80
65872;BME280;52653;50.080;21.992;2023-08-21T11:30:37;99558.17;;;32.46;48.37
65872;BME280;52653;50.080;21.992;2023-08-21T11:33:13;99561.23;;;32.33;48.63
65872;BME280;52653;50.080;21.992;2023-08-21T11:35:46;99563.27;;;32.26;48.61
65872;BME280;52653;50.080;21.992;2023-08-21T11:38:22;99565.06;;;32.39;48.77
65872;BME280;52653;50.080;21.992;2023-08-21T11:41:07;99566.87;;;32.44;48.71
65872;BME280;52653;50.080;21.992;2023-08-21T11:43:41;99566.92;;;32.46;48.83
65872;BME280;52653;50.080;21.992;2023-08-21T11:46:36;99564.09;;;32.49;48.60
65872;BME280;52653;50.080;21.992;2023-08-21T11:49:12;99564.27;;;32.55;48.62
65872;BME280;52653;50.080;21.992;2023-08-21T11:51:54;99566.09;;;32.64;48.80
65872;BME280;52653;50.080;21.992;2023-08-21T11:54:34;99567.59;;;32.73;48.57
65872;BME280;52653;50.080;21.992;2023-08-21T11:57:27;99566.52;;;32.62;48.36
65872;BME280;52653;50.080;21.992;2023-08-21T12:00:28;99564.09;;;32.68;49.07
65872;BME280;52653;50.080;21.992;2023-08-21T12:03:22;99568.62;;;32.90;48.95
65872;BME280;52653;50.080;21.992;2023-08-21T12:06:00;99556.79;;;32.96;48.26
65872;BME280;52653;50.080;21.992;2023-08-21T12:08:57;99554.21;;;33.07;48.00
65872;BME280;52653;50.080;21.992;2023-08-21T12:11:42;99556.75;;;32.98;47.63
65872;BME280;52653;50.080;21.992;2023-08-21T12:14:14;99554.82;;;32.99;47.99
65872;BME280;52653;50.080;21.992;2023-08-21T12:16:57;99554.63;;;33.03;47.63
65872;BME280;52653;50.080;21.992;2023-08-21T12:19:30;99554.06;;;32.86;46.60
65872;BME280;52653;50.080;21.992;2023-08-21T12:22:07;99551.33;;;32.63;46.96
65872;BME280;52653;50.080;21.992;2023-08-21T12:24:43;99554.06;;;32.53;47.83
65872;BME280;52653;50.080;21.992;2023-08-21T12:30:14;99553.59;;;32.73;47.61
65872;BME280;52653;50.080;21.992;2023-08-21T12:32:47;99559.20;;;32.74;47.39
65872;BME280;52653;50.080;21.992;2023-08-21T12:35:31;99558.79;;;32.69;47.28
65872;BME280;52653;50.080;21.992;2023-08-21T12:38:12;99559.80;;;32.68;47.70
65872;BME280;52653;50.080;21.992;2023-08-21T12:40:56;99560.51;;;32.60;47.74
65872;BME280;52653;50.080;21.992;2023-08-21T12:43:28;99558.90;;;32.48;47.52
65872;BME280;52653;50.080;21.992;2023-08-21T12:46:23;99558.70;;;32.44;47.90
65872;BME280;52653;50.080;21.992;2023-08-21T12:48:57;99563.54;;;32.47;47.94
65872;BME280;52653;50.080;21.992;2023-08-21T12:51:40;99559.02;;;32.55;48.43
65872;BME280;52653;50.080;21.992;2023-08-21T12:54:29;99556.32;;;32.60;48.20
65872;BME280;52653;50.080;21.992;2023-08-21T12:57:07;99559.67;;;32.65;48.61
65872;BME280;52653;50.080;21.992;2023-08-21T12:59:43;99558.66;;;32.68;48.49
65872;BME280;52653;50.080;21.992;2023-08-21T13:02:16;99556.33;;;32.58;48.51
65872;BME280;52653;50.080;21.992;2023-08-21T13:04:50;99558.46;;;32.50;48.75
65872;BME280;52653;50.080;21.992;2023-08-21T13:07:33;99559.34;;;32.37;48.87
65872;BME280;52653;50.080;21.992;2023-08-21T13:10:19;99556.93;;;32.22;49.28
65872;BME280;52653;50.080;21.992;2023-08-21T13:13:06;99561.21;;;32.18;50.02
65872;BME280;52653;50.080;21.992;2023-08-21T13:15:41;99558.98;;;32.23;49.98
65872;BME280;52653;50.080;21.992;2023-08-21T13:18:27;99556.23;;;32.24;50.03
65872;BME280;52653;50.080;21.992;2023-08-21T13:21:19;99553.95;;;32.17;49.15
65872;BME280;52653;50.080;21.992;2023-08-21T13:23:52;99550.89;;;32.16;48.97
65872;BME280;52653;50.080;21.992;2023-08-21T13:26:38;99545.65;;;32.16;48.60
65872;BME280;52653;50.080;21.992;2023-08-21T13:29:24;99543.55;;;32.23;48.30
65872;BME280;52653;50.080;21.992;2023-08-21T13:32:09;99543.23;;;32.27;48.65
65872;BME280;52653;50.080;21.992;2023-08-21T13:34:43;99535.04;;;32.31;48.39
65872;BME280;52653;50.080;21.992;2023-08-21T13:37:16;99535.67;;;32.28;47.89
65872;BME280;52653;50.080;21.992;2023-08-21T13:39:50;99530.40;;;32.22;48.20